createdAt,value
2022-08-19T00:01:29.157Z,4.50
2022-08-19T00:03:57.838Z,5.25
2022-08-19T00:06:25.184Z,5.35
2022-08-19T00:08:52.564Z,5.05
2022-08-19T00:11:25.941Z,5.10
2022-08-19T00:13:56.336Z,5.13
2022-08-19T00:16:26.141Z,4.78
2022-08-19T00:18:54.347Z,5.65
2022-08-19T00:21:21.702Z,5.07
2022-08-19T00:23:49.034Z,5.40
2022-08-19T00:26:16.374Z,4.47
2022-08-19T00:28:43.697Z,5.72
2022-08-19T00:31:12.384Z,5.22
2022-08-19T00:33:39.742Z,5.38
2022-08-19T00:36:07.562Z,5.47
2022-08-19T00:38:37.300Z,5.28
2022-08-19T00:41:05.946Z,6.20
2022-08-19T00:43:33.334Z,5.47
2022-08-19T00:46:02.338Z,5.45
2022-08-19T00:48:31.047Z,5.13
2022-08-19T00:50:58.348Z,5.47
2022-08-19T00:53:27.279Z,6.20
2022-08-19T00:55:54.837Z,5.57
2022-08-19T00:58:22.768Z,5.95
2022-08-19T01:00:50.117Z,5.28
2022-08-19T01:03:19.268Z,6.18
2022-08-19T01:05:48.026Z,5.80
2022-08-19T01:08:15.638Z,5.80
2022-08-19T01:10:47.472Z,5.63
2022-08-19T01:13:15.572Z,6.15
2022-08-19T01:15:43.867Z,6.30
2022-08-19T01:18:11.752Z,5.55
2022-08-19T01:20:39.180Z,6.50
2022-08-19T01:23:07.900Z,5.93
2022-08-19T01:25:41.957Z,6.18
2022-08-19T01:28:10.852Z,6.60
2022-08-19T01:30:38.702Z,6.85
2022-08-19T01:33:06.930Z,6.65
2022-08-19T01:35:34.285Z,7.18
2022-08-19T01:38:02.609Z,6.95
2022-08-19T01:40:32.650Z,7.90
2022-08-19T01:43:00.464Z,7.00
2022-08-19T01:45:28.481Z,7.35
2022-08-19T01:48:02.223Z,6.85
2022-08-19T01:50:30.101Z,7.03
2022-08-19T01:53:05.921Z,7.32
2022-08-19T01:55:36.995Z,7.15
2022-08-19T01:58:09.237Z,7.30
2022-08-19T02:00:36.580Z,7.20
2022-08-19T02:03:03.943Z,7.22
2022-08-19T02:05:31.276Z,8.40
2022-08-19T02:07:59.811Z,7.70
2022-08-19T02:10:27.159Z,8.15
2022-08-19T02:12:55.855Z,8.05
2022-08-19T02:15:23.803Z,8.25
2022-08-19T02:17:51.154Z,8.25
2022-08-19T02:20:18.532Z,7.47
2022-08-19T02:22:45.933Z,7.10
2022-08-19T02:25:13.313Z,7.07
2022-08-19T02:27:40.753Z,7.32
2022-08-19T02:30:14.247Z,6.95
2022-08-19T02:32:44.481Z,6.97
2022-08-19T02:35:12.549Z,7.75
2022-08-19T02:37:57.980Z,8.25
2022-08-19T02:40:25.332Z,7.90
2022-08-19T02:42:53.141Z,7.40
2022-08-19T02:45:22.018Z,7.95
2022-08-19T02:47:49.353Z,8.13
2022-08-19T02:50:16.695Z,9.07
2022-08-19T02:52:44.022Z,8.65
2022-08-19T02:55:11.354Z,7.72
2022-08-19T02:57:38.711Z,7.35
2022-08-19T03:00:06.833Z,7.55
2022-08-19T03:02:35.517Z,6.70
2022-08-19T03:05:04.207Z,7.30
2022-08-19T03:07:31.980Z,7.78
2022-08-19T03:09:59.368Z,8.20
2022-08-19T03:12:26.701Z,7.57
2022-08-19T03:14:54.029Z,7.82
2022-08-19T03:17:21.385Z,7.18
2022-08-19T03:19:50.074Z,7.00
2022-08-19T03:22:17.407Z,7.22
2022-08-19T03:24:44.988Z,7.70
2022-08-19T03:27:13.227Z,7.07
2022-08-19T03:29:44.018Z,7.40
2022-08-19T03:32:32.188Z,7.57
2022-08-19T03:35:00.199Z,7.50
2022-08-19T03:37:27.673Z,7.10
2022-08-19T03:39:55.116Z,6.60
2022-08-19T03:42:38.288Z,5.55
2022-08-19T03:45:11.347Z,6.03
2022-08-19T03:47:39.015Z,6.72
2022-08-19T03:50:09.604Z,7.28
2022-08-19T03:52:37.290Z,8.80
2022-08-19T03:55:04.859Z,7.80
2022-08-19T03:57:33.296Z,8.23
2022-08-19T04:00:12.777Z,7.97
2022-08-19T04:02:41.186Z,6.55
2022-08-19T04:05:10.311Z,6.53
2022-08-19T04:07:37.643Z,7.25
2022-08-19T04:10:05.366Z,8.13
2022-08-19T04:12:32.775Z,6.75
2022-08-19T04:15:00.281Z,7.20
2022-08-19T04:17:27.687Z,7.40
2022-08-19T04:19:55.011Z,7.05
2022-08-19T04:22:23.686Z,6.47
2022-08-19T04:24:54.494Z,7.03
2022-08-19T04:27:21.887Z,6.60
2022-08-19T04:29:50.053Z,6.80
2022-08-19T04:32:17.411Z,7.00
2022-08-19T04:35:01.192Z,7.28
2022-08-19T04:37:35.733Z,7.45
2022-08-19T04:40:21.437Z,8.23
2022-08-19T04:42:48.866Z,7.18
2022-08-19T04:45:17.384Z,6.97
2022-08-19T04:47:48.091Z,7.00
2022-08-19T04:50:25.614Z,6.80
2022-08-19T04:52:54.648Z,7.30
2022-08-19T04:55:22.176Z,6.20
2022-08-19T04:57:49.811Z,6.32
2022-08-19T05:00:17.251Z,6.30
2022-08-19T05:02:44.656Z,5.97
2022-08-19T05:05:11.972Z,6.35
2022-08-19T05:07:39.726Z,6.28
2022-08-19T05:10:08.797Z,6.57
2022-08-19T05:12:36.508Z,6.70
2022-08-19T05:15:04.062Z,6.40
2022-08-19T05:17:37.521Z,6.20
2022-08-19T05:20:23.859Z,7.00
2022-08-19T05:22:51.281Z,6.72
2022-08-19T05:25:20.863Z,6.25
2022-08-19T05:27:48.312Z,6.45
2022-08-19T05:30:15.789Z,7.22
2022-08-19T05:32:43.128Z,6.82
2022-08-19T05:35:10.573Z,6.53
2022-08-19T05:37:37.996Z,7.13
2022-08-19T05:40:05.654Z,6.40
2022-08-19T05:42:34.372Z,6.95
2022-08-19T05:45:02.129Z,7.40
2022-08-19T05:47:29.518Z,6.80
2022-08-19T05:49:56.845Z,7.25
2022-08-19T05:52:25.398Z,8.10
2022-08-19T05:54:55.492Z,7.80
2022-08-19T05:57:22.857Z,7.05
2022-08-19T05:59:57.689Z,7.20
2022-08-19T06:02:26.069Z,7.40
2022-08-19T06:04:53.507Z,7.40
2022-08-19T06:07:21.376Z,7.75
2022-08-19T06:09:58.960Z,8.35
2022-08-19T06:12:29.869Z,10.07
2022-08-19T06:15:00.549Z,10.63
2022-08-19T06:17:30.904Z,12.73
2022-08-19T06:19:59.242Z,12.75
2022-08-19T06:22:26.594Z,14.23
2022-08-19T06:24:54.775Z,16.38
2022-08-19T06:27:22.122Z,17.88
2022-08-19T06:29:49.484Z,18.48
2022-08-19T06:32:18.648Z,20.88
2022-08-19T06:34:46.023Z,20.38
2022-08-19T06:37:13.574Z,19.70
2022-08-19T06:39:41.999Z,18.33
2022-08-19T06:42:12.335Z,15.73
2022-08-19T06:44:43.371Z,14.23
2022-08-19T06:47:14.968Z,12.75
2022-08-19T06:49:51.923Z,11.75
2022-08-19T06:52:20.781Z,10.40
2022-08-19T06:54:55.475Z,9.60
2022-08-19T06:57:23.524Z,9.57
2022-08-19T06:59:50.910Z,9.98
2022-08-19T07:04:52.587Z,11.30
2022-08-19T07:07:21.478Z,10.63
2022-08-19T07:10:00.042Z,9.88
2022-08-19T07:12:29.678Z,9.45
2022-08-19T07:14:58.894Z,9.13
2022-08-19T07:17:26.339Z,9.00
2022-08-19T07:19:56.067Z,9.30
2022-08-19T07:22:24.617Z,8.27
2022-08-19T07:24:52.128Z,8.68
2022-08-19T07:27:24.693Z,9.10
2022-08-19T07:29:55.694Z,10.20
2022-08-19T07:32:24.509Z,10.38
2022-08-19T07:34:53.418Z,11.70
2022-08-19T07:37:22.113Z,10.07
2022-08-19T07:39:49.622Z,10.05
2022-08-19T07:42:18.031Z,9.68
2022-08-19T07:44:50.331Z,8.80
2022-08-19T07:47:47.881Z,8.27
2022-08-19T07:50:06.457Z,8.70
2022-08-19T07:52:36.803Z,8.85
2022-08-19T07:55:04.927Z,9.23
2022-08-19T07:57:32.442Z,10.73
2022-08-19T08:00:00.356Z,9.80
2022-08-19T08:02:27.697Z,9.85
2022-08-19T08:05:12.530Z,10.07
2022-08-19T08:07:59.654Z,11.80
2022-08-19T08:10:27.044Z,12.07
2022-08-19T08:13:09.432Z,10.73
2022-08-19T08:15:42.594Z,11.02
2022-08-19T08:18:10.231Z,10.25
2022-08-19T08:20:37.611Z,10.68
2022-08-19T08:23:32.265Z,11.23
2022-08-19T08:25:59.989Z,11.40
2022-08-19T08:28:29.666Z,10.65
2022-08-19T08:30:57.550Z,10.38
2022-08-19T08:33:34.284Z,10.68
2022-08-19T08:36:03.918Z,9.90
2022-08-19T08:38:36.943Z,12.00
2022-08-19T08:41:08.448Z,11.02
2022-08-19T08:43:36.359Z,10.52
2022-08-19T08:46:05.075Z,11.90
2022-08-19T08:48:34.455Z,14.02
2022-08-19T08:51:02.070Z,13.07
2022-08-19T08:53:35.676Z,13.25
2022-08-19T08:56:08.050Z,14.80
2022-08-19T08:58:42.875Z,13.82
2022-08-19T09:01:11.113Z,13.32
2022-08-19T09:03:38.725Z,15.43
2022-08-19T09:06:11.924Z,17.60
2022-08-19T09:08:43.990Z,15.48
2022-08-19T09:11:12.252Z,15.77
2022-08-19T09:13:43.688Z,20.00
2022-08-19T09:16:12.439Z,15.10
2022-08-19T09:18:43.825Z,15.48
2022-08-19T09:21:11.270Z,18.58
2022-08-19T09:23:38.632Z,19.77
2022-08-19T09:26:10.544Z,19.38
2022-08-19T09:28:39.154Z,17.40
2022-08-19T09:31:11.523Z,17.45
2022-08-19T09:33:38.991Z,17.98
2022-08-19T09:36:08.588Z,21.40
2022-08-19T09:38:36.283Z,19.50
2022-08-19T09:41:14.417Z,19.88
2022-08-19T09:43:44.391Z,20.13
2022-08-19T09:46:18.328Z,22.08
2022-08-19T09:48:49.196Z,21.95
2022-08-19T09:51:16.934Z,20.25
2022-08-19T09:53:44.471Z,20.92
2022-08-19T09:56:13.203Z,22.80
2022-08-19T09:58:40.617Z,19.20
2022-08-19T10:01:08.257Z,21.20
2022-08-19T10:03:35.800Z,19.98
2022-08-19T10:06:04.702Z,22.05
2022-08-19T10:08:32.652Z,21.52
2022-08-19T10:11:28.508Z,20.90
2022-08-19T10:13:50.505Z,19.02
2022-08-19T10:16:19.768Z,17.60
2022-08-19T10:18:49.650Z,16.67
2022-08-19T10:21:17.783Z,15.25
2022-08-19T10:23:46.440Z,14.88
2022-08-19T10:26:14.320Z,14.00
2022-08-19T10:28:43.253Z,15.57
2022-08-19T10:31:16.464Z,12.52
2022-08-19T10:33:53.955Z,10.98
2022-08-19T10:36:23.404Z,10.32
2022-08-19T10:38:56.203Z,9.52
2022-08-19T10:41:24.862Z,12.18
2022-08-19T10:43:53.352Z,11.65
2022-08-19T10:46:22.504Z,9.23
2022-08-19T10:48:49.852Z,9.50
2022-08-19T10:51:35.464Z,10.07
2022-08-19T10:54:03.221Z,8.82
2022-08-19T10:56:51.677Z,10.15
2022-08-19T10:59:19.392Z,8.60
2022-08-19T11:01:48.981Z,9.27
2022-08-19T11:04:18.624Z,9.40
2022-08-19T11:06:48.250Z,9.93
2022-08-19T11:09:16.057Z,10.95
2022-08-19T11:11:43.532Z,10.98
2022-08-19T11:14:11.319Z,10.30
2022-08-19T11:16:39.934Z,12.07
2022-08-19T11:19:09.186Z,15.20
2022-08-19T11:21:37.008Z,14.90
2022-08-19T11:24:05.043Z,15.98
2022-08-19T11:26:32.498Z,13.90
2022-08-19T11:28:59.886Z,14.98
2022-08-19T11:31:28.830Z,14.30
2022-08-19T11:33:57.760Z,12.68
2022-08-19T11:36:26.447Z,14.32
2022-08-19T11:38:53.809Z,12.65
2022-08-19T11:41:21.485Z,11.98
2022-08-19T11:43:48.825Z,11.82
2022-08-19T11:46:16.465Z,11.05
2022-08-19T11:48:43.870Z,11.23
2022-08-19T11:51:11.675Z,10.93
2022-08-19T11:53:40.533Z,9.63
2022-08-19T11:56:08.234Z,9.85
2022-08-19T11:58:36.030Z,9.02
2022-08-19T12:01:03.374Z,9.85
2022-08-19T12:03:31.565Z,9.88
2022-08-19T12:05:58.934Z,9.80
2022-08-19T12:08:26.259Z,9.75
2022-08-19T12:10:54.949Z,8.98
2022-08-19T12:13:22.278Z,9.02
2022-08-19T12:15:49.784Z,11.10
2022-08-19T12:18:17.100Z,10.32
2022-08-19T12:20:44.612Z,9.32
2022-08-19T12:23:12.043Z,10.25
2022-08-19T12:25:39.457Z,10.68
2022-08-19T12:28:08.174Z,10.15
2022-08-19T12:30:35.501Z,11.70
2022-08-19T12:33:02.849Z,9.65
2022-08-19T12:35:31.455Z,10.68
2022-08-19T12:37:59.857Z,11.07
2022-08-19T12:40:27.422Z,10.10
2022-08-19T12:42:54.827Z,10.10
2022-08-19T12:45:23.647Z,9.43
2022-08-19T12:47:51.193Z,10.70
2022-08-19T12:50:22.407Z,10.80
2022-08-19T12:52:49.909Z,10.70
2022-08-19T12:55:19.452Z,11.10
2022-08-19T12:57:46.821Z,13.75
2022-08-19T13:00:15.174Z,11.27
2022-08-19T13:02:45.057Z,11.18
2022-08-19T13:05:13.012Z,11.02
2022-08-19T13:07:40.522Z,11.70
2022-08-19T13:10:08.517Z,11.65
2022-08-19T13:12:35.999Z,10.93
2022-08-19T13:15:03.427Z,10.48
2022-08-19T13:17:38.980Z,11.65
2022-08-19T13:20:08.869Z,10.98
2022-08-19T13:22:36.905Z,10.80
2022-08-19T13:25:04.530Z,11.05
2022-08-19T13:27:31.857Z,10.27
2022-08-19T13:30:16.500Z,10.20
2022-08-19T13:33:01.176Z,10.18
2022-08-19T13:35:29.846Z,10.80
2022-08-19T13:37:57.139Z,10.38
2022-08-19T13:40:24.967Z,9.45
2022-08-19T13:42:52.871Z,9.88
2022-08-19T13:45:21.829Z,10.60
2022-08-19T13:47:49.292Z,10.05
2022-08-19T13:50:17.252Z,9.35
2022-08-19T13:52:45.955Z,8.93
2022-08-19T13:55:13.363Z,8.95
2022-08-19T13:57:40.829Z,8.90
2022-08-19T14:00:08.945Z,9.13
2022-08-19T14:02:36.268Z,8.35
2022-08-19T14:05:03.628Z,8.32
2022-08-19T14:07:30.971Z,8.45
2022-08-19T14:09:59.657Z,8.30
2022-08-19T14:12:28.530Z,8.85
2022-08-19T14:14:56.508Z,8.63
2022-08-19T14:17:23.864Z,8.10
2022-08-19T14:19:51.187Z,8.90
2022-08-19T14:22:22.341Z,9.02
2022-08-19T14:24:51.059Z,8.65
2022-08-19T14:27:19.738Z,7.93
2022-08-19T14:29:47.366Z,8.35
2022-08-19T14:32:16.919Z,9.90
2022-08-19T14:34:46.732Z,8.80
2022-08-19T14:37:14.915Z,8.68
2022-08-19T14:39:42.292Z,9.77
2022-08-19T14:42:11.512Z,9.20
2022-08-19T14:44:40.330Z,9.25
2022-08-19T14:47:08.365Z,8.18
2022-08-19T14:49:43.066Z,9.18
2022-08-19T14:52:13.303Z,8.55
2022-08-19T14:54:40.819Z,9.23
2022-08-19T14:57:08.187Z,9.18
2022-08-19T14:59:36.099Z,9.23
2022-08-19T15:02:34.128Z,9.07
2022-08-19T15:04:58.134Z,8.45
2022-08-19T15:07:29.069Z,8.63
2022-08-19T15:09:57.106Z,9.88
2022-08-19T15:12:24.837Z,9.32
2022-08-19T15:14:55.124Z,10.68
2022-08-19T15:17:43.571Z,9.57
2022-08-19T15:20:13.370Z,11.25
2022-08-19T15:22:40.873Z,13.35
2022-08-19T15:25:08.862Z,11.95
2022-08-19T15:27:39.888Z,13.70
2022-08-19T15:30:09.144Z,14.43
2022-08-19T15:32:37.877Z,13.40
2022-08-19T15:35:05.946Z,13.15
2022-08-19T15:37:36.924Z,13.68
2022-08-19T15:40:05.470Z,14.60
2022-08-19T15:42:32.967Z,14.55
2022-08-19T15:45:01.472Z,14.68
2022-08-19T15:47:35.085Z,14.38
2022-08-19T15:50:06.479Z,13.13
2022-08-19T15:52:48.351Z,15.10
2022-08-19T15:55:32.148Z,16.65
2022-08-19T15:58:24.122Z,18.27
2022-08-19T16:01:13.074Z,14.77
2022-08-19T16:03:58.162Z,13.73
2022-08-19T16:06:26.855Z,13.02
2022-08-19T16:08:54.802Z,11.60
2022-08-19T16:11:22.414Z,11.73
2022-08-19T16:13:51.947Z,12.10
2022-08-19T16:16:19.434Z,12.32
2022-08-19T16:18:47.200Z,12.90
2022-08-19T16:21:17.226Z,14.00
2022-08-19T16:23:46.590Z,15.20
2022-08-19T16:26:14.295Z,12.88
2022-08-19T16:28:41.947Z,11.85
2022-08-19T16:31:09.269Z,11.68
2022-08-19T16:33:36.612Z,11.02
2022-08-19T16:36:07.706Z,10.40
2022-08-19T16:38:37.475Z,9.88
2022-08-19T16:41:06.333Z,8.20
2022-08-19T16:43:33.798Z,8.02
2022-08-19T16:46:01.493Z,6.85
2022-08-19T16:48:29.699Z,6.10
2022-08-19T16:50:57.087Z,6.38
2022-08-19T16:53:26.438Z,6.90
2022-08-19T16:55:57.621Z,6.70
2022-08-19T16:58:28.383Z,6.38
2022-08-19T17:00:57.157Z,6.75
2022-08-19T17:03:36.018Z,7.22
2022-08-19T17:06:04.414Z,7.00
2022-08-19T17:08:32.216Z,7.07
2022-08-19T17:11:17.042Z,7.28
2022-08-19T17:13:47.989Z,7.30
2022-08-19T17:16:15.902Z,6.82
2022-08-19T17:18:43.263Z,8.50
2022-08-19T17:21:12.664Z,7.45
2022-08-19T17:23:42.834Z,7.55
2022-08-19T17:26:16.936Z,6.45
2022-08-19T17:28:47.184Z,6.93
2022-08-19T17:31:15.121Z,10.50
2022-08-19T17:33:42.448Z,8.05
2022-08-19T17:36:15.681Z,7.20
2022-08-19T17:38:44.387Z,6.47
2022-08-19T17:41:11.807Z,6.40
2022-08-19T17:43:43.356Z,5.82
2022-08-19T17:46:17.687Z,6.10
2022-08-19T17:48:51.499Z,6.45
2022-08-19T17:51:22.070Z,6.47
2022-08-19T17:53:50.515Z,5.45
2022-08-19T17:56:17.960Z,5.57
2022-08-19T17:58:51.980Z,5.38
2022-08-19T18:01:29.529Z,5.38
2022-08-19T18:04:16.903Z,5.30
2022-08-19T18:06:52.718Z,4.97
2022-08-19T18:09:23.845Z,4.55
2022-08-19T18:11:52.992Z,4.93
2022-08-19T18:14:20.543Z,5.05
2022-08-19T18:16:49.260Z,4.43
2022-08-19T18:19:17.052Z,4.10
2022-08-19T18:21:44.392Z,4.18
2022-08-19T18:24:12.556Z,4.07
2022-08-19T18:26:40.284Z,4.25
2022-08-19T18:29:07.628Z,4.53
2022-08-19T18:31:35.443Z,4.25
2022-08-19T18:34:04.130Z,4.70
2022-08-19T18:36:52.826Z,4.28
2022-08-19T18:39:38.620Z,4.38
2022-08-19T18:42:24.456Z,5.35
2022-08-19T18:45:09.223Z,3.80
2022-08-19T18:47:54.204Z,4.15
2022-08-19T18:50:22.946Z,4.28
2022-08-19T18:52:50.266Z,4.13
2022-08-19T18:55:18.092Z,4.38
2022-08-19T18:57:45.650Z,3.90
2022-08-19T19:00:14.087Z,4.22
2022-08-19T19:02:41.467Z,3.83
2022-08-19T19:05:08.843Z,3.85
2022-08-19T19:07:37.527Z,4.13
2022-08-19T19:10:05.072Z,4.28
2022-08-19T19:12:32.468Z,4.35
2022-08-19T19:14:59.817Z,3.92
2022-08-19T19:17:28.183Z,4.00
2022-08-19T19:19:55.519Z,4.47
2022-08-19T19:22:22.974Z,5.70
2022-08-19T19:24:51.829Z,5.50
2022-08-19T19:27:20.327Z,5.93
2022-08-19T19:29:51.714Z,6.18
2022-08-19T19:32:21.228Z,5.60
2022-08-19T19:34:48.642Z,4.70
2022-08-19T19:37:16.310Z,4.57
2022-08-19T19:39:46.369Z,3.95
2022-08-19T19:42:20.037Z,5.07
2022-08-19T19:44:49.241Z,4.82
2022-08-19T19:47:18.620Z,4.63
2022-08-19T19:50:10.774Z,4.68
2022-08-19T19:52:33.402Z,4.47
2022-08-19T19:55:01.383Z,4.60
2022-08-19T19:57:30.256Z,5.38
2022-08-19T19:59:58.170Z,5.90
2022-08-19T20:02:26.069Z,5.68
2022-08-19T20:04:57.050Z,5.65
2022-08-19T20:07:44.530Z,6.05
2022-08-19T20:10:10.995Z,7.03
2022-08-19T20:12:39.707Z,6.00
2022-08-19T20:15:07.291Z,6.05
2022-08-19T20:17:35.332Z,6.70
2022-08-19T20:20:02.697Z,7.10
2022-08-19T20:22:33.764Z,6.22
2022-08-19T20:25:01.702Z,6.07
2022-08-19T20:27:29.282Z,6.82
2022-08-19T20:29:59.916Z,6.70
2022-08-19T20:32:27.271Z,6.45
2022-08-19T20:34:54.598Z,7.10
2022-08-19T20:37:21.946Z,6.55
2022-08-19T20:39:49.517Z,6.50
2022-08-19T20:42:17.228Z,6.63
2022-08-19T20:44:44.582Z,6.22
2022-08-19T20:47:13.260Z,6.68
2022-08-19T20:49:40.751Z,6.40
2022-08-19T20:52:08.073Z,6.22
2022-08-19T20:54:35.581Z,6.13
2022-08-19T20:57:03.717Z,5.30
2022-08-19T20:59:31.070Z,4.95
2022-08-19T21:01:58.402Z,4.78
2022-08-19T21:04:27.302Z,4.90
2022-08-19T21:06:54.691Z,4.93
2022-08-19T21:09:22.027Z,4.10
2022-08-19T21:11:49.375Z,4.28
2022-08-19T21:14:16.735Z,3.88
2022-08-19T21:16:44.535Z,4.30
2022-08-19T21:19:12.114Z,3.75
2022-08-19T21:21:40.790Z,4.53
2022-08-19T21:24:08.235Z,4.32
2022-08-19T21:26:35.576Z,5.22
2022-08-19T21:29:02.897Z,4.85
2022-08-19T21:31:30.276Z,4.28
2022-08-19T21:33:59.464Z,3.95
2022-08-19T21:36:26.921Z,4.38
2022-08-19T21:38:55.599Z,4.07
2022-08-19T21:41:22.962Z,4.22
2022-08-19T21:43:50.300Z,3.88
2022-08-19T21:46:17.655Z,3.00
2022-08-19T21:48:48.231Z,3.40
2022-08-19T21:51:18.005Z,3.50
2022-08-19T21:53:53.288Z,3.63
2022-08-19T21:56:21.966Z,3.42
2022-08-19T21:58:49.330Z,4.18
2022-08-19T22:01:16.709Z,3.10
2022-08-19T22:03:44.073Z,3.08
2022-08-19T22:06:11.399Z,2.90
2022-08-19T22:08:38.778Z,2.85
2022-08-19T22:11:06.128Z,2.95
2022-08-19T22:13:39.793Z,3.38
2022-08-19T22:16:07.680Z,2.60
2022-08-19T22:18:35.682Z,2.67
2022-08-19T22:21:06.410Z,2.72
2022-08-19T22:23:36.927Z,2.92
2022-08-19T22:26:04.262Z,2.70
2022-08-19T22:28:31.608Z,3.22
2022-08-19T22:31:00.459Z,3.13
2022-08-19T22:33:32.198Z,2.92
2022-08-19T22:35:59.611Z,2.80
2022-08-19T22:38:28.324Z,3.10
2022-08-19T22:40:56.465Z,2.65
2022-08-19T22:43:24.947Z,2.97
2022-08-19T22:45:52.627Z,3.05
2022-08-19T22:48:21.736Z,2.55
2022-08-19T22:51:03.204Z,2.67
2022-08-19T22:53:30.538Z,2.63
2022-08-19T22:55:58.028Z,2.90
2022-08-19T22:58:28.149Z,3.00
2022-08-19T23:00:56.079Z,2.80
2022-08-19T23:03:24.804Z,2.60
2022-08-19T23:05:52.585Z,2.70
2022-08-19T23:08:20.095Z,2.28
2022-08-19T23:10:48.484Z,2.13
2022-08-19T23:13:17.010Z,2.63
2022-08-19T23:15:44.651Z,2.35
2022-08-19T23:18:12.026Z,2.40
2022-08-19T23:20:41.029Z,2.83
2022-08-19T23:23:08.858Z,2.13
2022-08-19T23:25:36.981Z,2.25
2022-08-19T23:28:22.108Z,2.03
2022-08-19T23:30:49.796Z,1.95
2022-08-19T23:33:21.315Z,2.00
2022-08-19T23:35:50.099Z,1.88
2022-08-19T23:38:18.903Z,2.25
2022-08-19T23:40:46.333Z,2.70
2022-08-19T23:43:17.376Z,2.15
2022-08-19T23:45:51.680Z,2.33
2022-08-19T23:48:19.019Z,2.38
2022-08-19T23:50:46.387Z,1.75
2022-08-19T23:53:15.092Z,2.20
2022-08-19T23:55:43.306Z,2.00
2022-08-19T23:58:10.755Z,1.70
